Dycusburg, Kentucky
Current Conditions -  °F | °C
As of 2:15 AM on Thursday 27 Nov 2014 (Local Time) from K5M9 Reporting Station
Haze Haze  
Wind Chill: 26°   Ceiling: 300
Heat Index: 32°   Visibility: 5mi
Dew Point: 32°   Wind: 7mph
Humidity: 99%   Direction: 330°NNW
Pressure: 30.19"   Gusts: NA
Location:  37.16°N, 88.18°W
Report Text: K5M9 270815Z AUTO 33006KT 5SM BR OVC003 00/00 A3019 RMK AO2 T00020000
Loading
Personal Weather Stations






























Interactive Weather Map New forecast layout! Learn more

10-Day Weather Forecast

Advertisements
Track Severe Weather on mobile